Time;durP1;ratioP1;P1;durP2;ratioP2;P2;SDS_P1;SDS_P2;PMS_P1;PMS_P2;Temp;Humidity;BMP_temperature;BMP_pressure;BME280_temperature;BME280_humidity;BME280_pressure;Samples;Min_cycle;Max_cycle;Signal;HPM_P1;HPM_P2
2022/02/19 00:04:08;;;;;;;7.43;3.70;;;;;;;;;;10535911;28;20038;-63
2022/02/19 00:09:09;;;;;;;13.15;4.55;;;;;;;;;;10535238;28;20030;-63
2022/02/19 00:14:09;;;;;;;7.00;3.67;;;;;;;;;;10535093;28;20024;-63
2022/02/19 00:19:09;;;;;;;7.77;4.63;;;;;;;;;;10535702;28;20564;-63
2022/02/19 00:24:10;;;;;;;14.60;4.07;;;;;;;;;;10536088;28;20023;-63
2022/02/19 00:29:10;;;;;;;13.27;4.20;;;;;;;;;;10535712;28;20084;-64
2022/02/19 00:34:11;;;;;;;12.20;3.70;;;;;;;;;;10535157;28;20433;-63
2022/02/19 00:39:12;;;;;;;8.50;3.87;;;;;;;;;;10530964;28;20031;-64
2022/02/19 00:44:12;;;;;;;5.50;3.45;;;;;;;;;;10534811;28;20481;-64
2022/02/19 00:49:12;;;;;;;10.67;3.97;;;;;;;;;;10535192;28;20032;-65
2022/02/19 00:54:13;;;;;;;5.77;3.50;;;;;;;;;;10533363;28;20504;-63
2022/02/19 00:59:13;;;;;;;7.97;3.97;;;;;;;;;;10532976;28;20043;-63
2022/02/19 01:04:13;;;;;;;9.03;3.47;;;;;;;;;;10534747;28;20077;-63
2022/02/19 01:09:14;;;;;;;4.75;3.38;;;;;;;;;;10533705;28;20103;-63
2022/02/19 01:14:14;;;;;;;4.90;3.33;;;;;;;;;;10534135;28;20020;-63
2022/02/19 01:19:15;;;;;;;8.20;3.50;;;;;;;;;;10533949;28;20591;-62
2022/02/19 01:24:15;;;;;;;7.47;3.78;;;;;;;;;;10533172;28;20043;-63
2022/02/19 01:29:15;;;;;;;6.10;3.60;;;;;;;;;;10533060;28;20028;-63
2022/02/19 01:34:16;;;;;;;7.67;3.50;;;;;;;;;;10534070;28;20157;-63
2022/02/19 01:39:17;;;;;;;8.05;4.00;;;;;;;;;;10537035;28;20934;-62
2022/02/19 01:44:17;;;;;;;5.63;3.28;;;;;;;;;;10541998;28;20249;-63
2022/02/19 01:49:18;;;;;;;6.00;3.87;;;;;;;;;;10542327;28;20440;-63
2022/02/19 01:54:18;;;;;;;7.57;3.97;;;;;;;;;;10541685;28;20028;-64
2022/02/19 01:59:19;;;;;;;3.97;3.20;;;;;;;;;;10539884;28;20060;-64
2022/02/19 02:04:20;;;;;;;4.82;3.40;;;;;;;;;;10541016;28;20027;-64
2022/02/19 02:09:20;;;;;;;4.55;3.38;;;;;;;;;;10540816;28;20031;-65
2022/02/19 02:14:21;;;;;;;5.80;3.70;;;;;;;;;;10539638;28;20024;-64
2022/02/19 02:19:21;;;;;;;5.68;3.10;;;;;;;;;;10540715;28;20054;-64
2022/02/19 02:24:22;;;;;;;4.40;3.17;;;;;;;;;;10540357;28;20110;-63
2022/02/19 02:29:22;;;;;;;5.72;3.65;;;;;;;;;;10539363;28;20048;-64
2022/02/19 02:34:23;;;;;;;6.05;3.28;;;;;;;;;;10539966;28;20085;-63
2022/02/19 02:39:23;;;;;;;6.03;4.03;;;;;;;;;;10540058;28;20505;-63
2022/02/19 02:44:23;;;;;;;4.80;3.23;;;;;;;;;;10539573;28;20140;-63
2022/02/19 02:49:24;;;;;;;9.40;3.27;;;;;;;;;;10539298;28;20440;-63
2022/02/19 02:54:24;;;;;;;5.67;3.30;;;;;;;;;;10539246;28;20119;-63
2022/02/19 02:59:25;;;;;;;3.37;2.90;;;;;;;;;;10538402;28;20044;-63
2022/02/19 03:04:25;;;;;;;7.18;3.20;;;;;;;;;;10538748;28;20058;-63
2022/02/19 03:09:27;;;;;;;3.83;2.92;;;;;;;;;;10538499;28;20081;-63
2022/02/19 03:14:27;;;;;;;5.03;3.40;;;;;;;;;;10538941;28;20031;-63
2022/02/19 03:19:27;;;;;;;4.60;3.37;;;;;;;;;;10538097;28;20387;-62
2022/02/19 03:24:28;;;;;;;5.07;3.27;;;;;;;;;;10538124;28;20573;-62
2022/02/19 03:29:31;;;;;;;4.30;2.80;;;;;;;;;;10538268;28;20093;-62
2022/02/19 03:34:32;;;;;;;3.72;3.08;;;;;;;;;;10537735;28;20058;-62
2022/02/19 03:39:32;;;;;;;5.57;3.00;;;;;;;;;;10537891;28;20050;-63
2022/02/19 03:44:32;;;;;;;3.80;2.87;;;;;;;;;;10537709;28;20376;-63
2022/02/19 03:49:33;;;;;;;7.23;3.17;;;;;;;;;;10536922;28;20024;-63
2022/02/19 03:54:33;;;;;;;3.60;2.70;;;;;;;;;;10537263;28;20059;-63
2022/02/19 03:59:33;;;;;;;4.83;3.00;;;;;;;;;;10535954;28;20048;-63
2022/02/19 04:04:34;;;;;;;5.23;3.30;;;;;;;;;;10535956;28;20432;-63
2022/02/19 04:09:35;;;;;;;3.87;2.70;;;;;;;;;;10536007;28;20057;-64
2022/02/19 04:14:35;;;;;;;4.00;3.00;;;;;;;;;;10536447;28;20024;-64
2022/02/19 04:19:35;;;;;;;3.50;2.63;;;;;;;;;;10535491;28;20020;-63
2022/02/19 04:24:36;;;;;;;4.07;2.80;;;;;;;;;;10535641;28;20055;-64
2022/02/19 04:29:36;;;;;;;3.17;2.63;;;;;;;;;;10534804;28;20444;-64
2022/02/19 04:34:37;;;;;;;3.97;2.78;;;;;;;;;;10535770;28;20111;-64
2022/02/19 04:39:38;;;;;;;2.92;2.55;;;;;;;;;;10534986;28;20085;-63
2022/02/19 04:44:38;;;;;;;3.57;2.83;;;;;;;;;;10535065;28;20024;-64
2022/02/19 04:49:39;;;;;;;2.95;2.60;;;;;;;;;;10534578;28;20441;-65
2022/02/19 04:54:39;;;;;;;3.67;2.83;;;;;;;;;;10535112;28;20024;-64
2022/02/19 04:59:40;;;;;;;5.30;2.92;;;;;;;;;;10534105;28;20498;-65
2022/02/19 05:04:40;;;;;;;3.97;2.67;;;;;;;;;;10534222;28;20054;-64
2022/02/19 05:09:40;;;;;;;3.73;2.60;;;;;;;;;;10533931;28;20031;-65
2022/02/19 05:14:41;;;;;;;3.07;2.10;;;;;;;;;;10533570;28;20047;-67
2022/02/19 05:19:41;;;;;;;4.33;2.87;;;;;;;;;;10534045;28;20031;-64
2022/02/19 05:24:42;;;;;;;3.40;2.50;;;;;;;;;;10534184;28;20472;-63
2022/02/19 05:29:42;;;;;;;4.57;2.50;;;;;;;;;;10533916;28;20081;-63
2022/02/19 05:34:42;;;;;;;13.00;2.70;;;;;;;;;;10533453;28;20028;-63
2022/02/19 05:39:43;;;;;;;3.13;2.20;;;;;;;;;;10532565;28;20459;-62
2022/02/19 05:44:43;;;;;;;4.60;2.67;;;;;;;;;;10533796;28;20031;-62
2022/02/19 05:49:47;;;;;;;3.13;2.83;;;;;;;;;;10533003;28;20082;-62
2022/02/19 05:54:48;;;;;;;3.08;2.50;;;;;;;;;;10532894;28;20571;-63
2022/02/19 05:59:49;;;;;;;3.90;2.63;;;;;;;;;;10532633;28;20321;-63
2022/02/19 06:04:49;;;;;;;2.70;2.42;;;;;;;;;;10532462;28;20391;-64
2022/02/19 06:09:50;;;;;;;3.77;2.60;;;;;;;;;;10532995;28;20025;-63
2022/02/19 06:14:50;;;;;;;4.43;2.83;;;;;;;;;;10532968;28;20052;-63
2022/02/19 06:19:50;;;;;;;4.60;2.60;;;;;;;;;;10532276;28;20028;-63
2022/02/19 06:24:51;;;;;;;5.53;2.55;;;;;;;;;;10535248;28;20028;-64
2022/02/19 06:29:51;;;;;;;7.70;2.70;;;;;;;;;;10540002;28;20030;-65
2022/02/19 06:34:52;;;;;;;5.82;3.30;;;;;;;;;;10539772;28;20028;-64
2022/02/19 06:39:52;;;;;;;11.27;3.00;;;;;;;;;;10540063;28;20031;-62
2022/02/19 06:44:53;;;;;;;10.17;4.90;;;;;;;;;;10539786;28;20103;-63
2022/02/19 06:49:53;;;;;;;16.40;3.80;;;;;;;;;;10539074;28;20440;-64
2022/02/19 06:54:54;;;;;;;15.73;5.00;;;;;;;;;;10539640;28;20037;-64
2022/02/19 06:59:54;;;;;;;21.45;5.43;;;;;;;;;;10537169;28;21068;-63
2022/02/19 07:04:54;;;;;;;10.05;5.38;;;;;;;;;;10538112;28;20149;-63
2022/02/19 07:09:55;;;;;;;21.50;6.07;;;;;;;;;;10537988;28;20030;-64
2022/02/19 07:14:55;;;;;;;10.07;5.27;;;;;;;;;;10538047;28;20050;-62
2022/02/19 07:19:55;;;;;;;8.83;5.70;;;;;;;;;;10534988;28;20036;-67
2022/02/19 07:24:56;;;;;;;13.30;5.87;;;;;;;;;;10536807;28;20032;-60
2022/02/19 07:29:56;;;;;;;15.00;6.10;;;;;;;;;;10535294;28;20031;-64
2022/02/19 07:34:58;;;;;;;12.47;6.20;;;;;;;;;;10537085;28;20052;-65
2022/02/19 07:39:59;;;;;;;11.90;6.22;;;;;;;;;;10536196;28;20999;-64
2022/02/19 07:44:59;;;;;;;21.33;6.45;;;;;;;;;;10536622;28;20034;-63
2022/02/19 08:00:38;;;;;;;10.68;6.70;;;;;;;;;;10536323;28;20044;-63
2022/02/19 08:05:38;;;;;;;22.67;7.17;;;;;;;;;;10536336;28;20024;-62
2022/02/19 08:10:39;;;;;;;16.95;7.70;;;;;;;;;;10536189;28;20111;-62
2022/02/19 08:15:40;;;;;;;10.98;7.13;;;;;;;;;;10535784;28;20047;-62
2022/02/19 08:20:42;;;;;;;27.33;7.55;;;;;;;;;;10534380;28;20068;-62
2022/02/19 08:25:44;;;;;;;22.48;9.57;;;;;;;;;;10534618;28;20027;-62
2022/02/19 08:30:46;;;;;;;26.63;10.20;;;;;;;;;;10535502;28;20039;-62
2022/02/19 08:35:46;;;;;;;23.40;10.45;;;;;;;;;;10535770;28;20032;-65
2022/02/19 08:40:47;;;;;;;35.53;10.88;;;;;;;;;;10535166;28;20407;-65
2022/02/19 08:45:47;;;;;;;29.43;12.07;;;;;;;;;;10534845;28;20024;-65
2022/02/19 08:50:48;;;;;;;41.45;13.38;;;;;;;;;;10535212;28;20032;-63
2022/02/19 08:55:49;;;;;;;38.28;12.00;;;;;;;;;;10534860;28;20482;-62
2022/02/19 09:00:50;;;;;;;25.88;12.98;;;;;;;;;;10534371;28;20044;-62
2022/02/19 09:05:50;;;;;;;21.52;11.63;;;;;;;;;;10534180;28;20027;-62
2022/02/19 09:10:50;;;;;;;25.47;12.70;;;;;;;;;;10534161;28;20107;-62
2022/02/19 09:15:51;;;;;;;33.20;12.77;;;;;;;;;;10534032;28;20035;-67
2022/02/19 09:20:51;;;;;;;36.97;12.75;;;;;;;;;;10533689;28;20111;-63
2022/02/19 09:25:52;;;;;;;33.33;11.80;;;;;;;;;;10530831;28;20103;-62
2022/02/19 09:30:52;;;;;;;30.67;11.37;;;;;;;;;;10533863;28;20020;-63
2022/02/19 09:35:52;;;;;;;31.10;11.77;;;;;;;;;;10533224;28;20857;-62
2022/02/19 09:40:54;;;;;;;44.93;12.57;;;;;;;;;;10533530;28;20449;-63
2022/02/19 09:45:54;;;;;;;40.15;11.35;;;;;;;;;;10532881;28;20024;-63
2022/02/19 09:50:57;;;;;;;27.45;11.05;;;;;;;;;;10533340;28;20111;-63
2022/02/19 09:55:57;;;;;;;30.17;11.73;;;;;;;;;;10532943;28;20021;-63
2022/02/19 10:01:21;;;;;;;32.13;11.30;;;;;;;;;;10537314;28;20479;-64
2022/02/19 10:06:26;;;;;;;30.27;10.70;;;;;;;;;;10541569;28;20445;-62
2022/02/19 10:11:29;;;;;;;35.17;11.20;;;;;;;;;;10541282;28;20052;-62
2022/02/19 10:16:30;;;;;;;39.35;11.43;;;;;;;;;;10540924;28;20047;-62
2022/02/19 10:21:30;;;;;;;31.40;11.77;;;;;;;;;;10540486;28;20164;-62
2022/02/19 10:26:31;;;;;;;29.60;11.83;;;;;;;;;;10541008;28;20531;-62
2022/02/19 10:31:33;;;;;;;28.73;10.38;;;;;;;;;;10540707;28;20670;-62
2022/02/19 10:37:00;;;;;;;41.40;10.68;;;;;;;;;;10540024;28;20108;-62
2022/02/19 10:42:05;;;;;;;24.15;10.13;;;;;;;;;;10537812;28;20044;-62
2022/02/19 10:47:22;;;;;;;29.35;10.40;;;;;;;;;;10539670;28;20050;-62
2022/02/19 10:52:23;;;;;;;26.58;10.82;;;;;;;;;;10539405;28;20036;-62
2022/02/19 10:57:23;;;;;;;34.67;10.97;;;;;;;;;;10537766;28;20044;-62
2022/02/19 11:02:25;;;;;;;15.27;9.90;;;;;;;;;;10539486;28;20548;-62
2022/02/19 11:07:26;;;;;;;23.67;10.32;;;;;;;;;;10539288;28;20025;-62
2022/02/19 11:12:26;;;;;;;19.45;10.45;;;;;;;;;;10537350;28;20545;-62
2022/02/19 11:17:29;;;;;;;23.55;10.40;;;;;;;;;;10537585;28;20024;-62
2022/02/19 11:22:31;;;;;;;16.48;9.63;;;;;;;;;;10538251;28;20087;-62
2022/02/19 11:27:40;;;;;;;19.05;10.63;;;;;;;;;;10537891;28;20107;-62
2022/02/19 11:32:42;;;;;;;18.33;9.00;;;;;;;;;;10536665;28;20047;-62
2022/02/19 11:37:43;;;;;;;24.83;9.93;;;;;;;;;;10537494;28;20059;-62
2022/02/19 11:42:45;;;;;;;15.77;8.60;;;;;;;;;;10537919;28;20028;-62
2022/02/19 11:47:46;;;;;;;21.08;9.27;;;;;;;;;;10537552;28;20026;-62
2022/02/19 11:53:05;;;;;;;17.27;8.93;;;;;;;;;;10536900;28;20047;-62
2022/02/19 11:58:07;;;;;;;;;;;;;;;;;;10537791;28;20105;-62
2022/02/19 12:03:30;;;;;;;17.50;9.32;;;;;;;;;;10537072;28;19918;-62
2022/02/19 12:09:12;;;;;;;16.92;9.48;;;;;;;;;;10537001;28;20111;-62
2022/02/19 12:14:12;;;;;;;14.90;9.75;;;;;;;;;;10534082;28;20482;-62
2022/02/19 12:19:13;;;;;;;17.50;9.57;;;;;;;;;;10534662;28;20042;-62
2022/02/19 12:24:14;;;;;;;17.02;10.45;;;;;;;;;;10534126;28;21027;-62
2022/02/19 12:29:22;;;;;;;18.33;9.55;;;;;;;;;;10536149;28;20024;-62
2022/02/19 12:34:22;;;;;;;22.40;9.68;;;;;;;;;;10535269;28;20387;-62
2022/02/19 12:39:23;;;;;;;20.95;10.32;;;;;;;;;;10532973;28;20035;-62
2022/02/19 12:44:24;;;;;;;24.13;10.32;;;;;;;;;;10535226;28;20048;-62
2022/02/19 12:49:25;;;;;;;16.38;10.13;;;;;;;;;;10534844;28;20243;-64
2022/02/19 12:54:35;;;;;;;22.33;10.07;;;;;;;;;;10534532;28;20250;-61
2022/02/19 12:59:37;;;;;;;14.15;9.82;;;;;;;;;;10554704;22;20504;-64
2022/02/19 13:04:42;;;;;;;14.63;9.93;;;;;;;;;;10539301;28;20016;-64
2022/02/19 13:09:47;;;;;;;22.20;10.00;;;;;;;;;;10534613;28;20031;-65
2022/02/19 13:14:52;;;;;;;20.00;9.25;;;;;;;;;;10533128;28;20024;-65
2022/02/19 13:20:17;;;;;;;14.80;9.65;;;;;;;;;;10532712;28;20052;-65
2022/02/19 13:25:18;;;;;;;17.95;9.45;;;;;;;;;;10533475;28;20035;-66
2022/02/19 13:30:18;;;;;;;14.02;9.65;;;;;;;;;;10533354;28;20020;-66
2022/02/19 13:35:19;;;;;;;15.68;9.30;;;;;;;;;;10531785;28;20048;-66
2022/02/19 13:40:23;;;;;;;13.15;9.07;;;;;;;;;;10533367;28;20039;-67
2022/02/19 13:45:42;;;;;;;14.88;9.48;;;;;;;;;;10532038;28;20032;-65
2022/02/19 13:50:54;;;;;;;14.85;9.82;;;;;;;;;;10533530;28;20048;-66
2022/02/19 13:55:58;;;;;;;18.50;9.23;;;;;;;;;;10531918;28;20356;-66
2022/02/19 14:01:15;;;;;;;16.30;9.93;;;;;;;;;;10531646;28;20105;-65
2022/02/19 14:06:33;;;;;;;17.55;8.93;;;;;;;;;;10531415;28;20479;-63
2022/02/19 14:11:33;;;;;;;17.45;9.57;;;;;;;;;;10531955;28;20028;-65
2022/02/19 14:16:33;;;;;;;13.93;9.37;;;;;;;;;;10531981;28;20486;-63
2022/02/19 14:21:34;;;;;;;15.70;9.60;;;;;;;;;;10532418;28;20567;-66
2022/02/19 14:26:34;;;;;;;15.37;9.33;;;;;;;;;;10532020;28;20107;-66
2022/02/19 14:31:36;;;;;;;14.70;9.55;;;;;;;;;;10530870;28;20436;-62
2022/02/19 14:36:36;;;;;;;16.25;9.10;;;;;;;;;;10531431;28;20127;-63
2022/02/19 14:41:36;;;;;;;16.40;8.87;;;;;;;;;;10531941;28;20034;-65
2022/02/19 14:46:37;;;;;;;17.33;9.47;;;;;;;;;;10534323;28;20078;-65
2022/02/19 14:51:37;;;;;;;18.20;9.40;;;;;;;;;;10538647;28;20028;-64
2022/02/19 14:56:38;;;;;;;15.13;9.53;;;;;;;;;;10538048;28;20052;-64
2022/02/19 15:01:38;;;;;;;16.52;9.80;;;;;;;;;;10537237;28;20432;-65
2022/02/19 15:06:39;;;;;;;16.50;10.00;;;;;;;;;;10538630;28;20459;-65
2022/02/19 15:11:40;;;;;;;19.70;9.97;;;;;;;;;;10536885;28;20031;-64
2022/02/19 15:16:42;;;;;;;14.23;8.88;;;;;;;;;;10538282;28;20796;-63
2022/02/19 15:21:43;;;;;;;14.95;9.20;;;;;;;;;;10538550;28;20088;-63
2022/02/19 15:26:43;;;;;;;15.30;9.30;;;;;;;;;;10538851;28;20539;-62
2022/02/19 15:31:44;;;;;;;14.05;9.05;;;;;;;;;;10538280;28;20255;-64
2022/02/19 15:36:44;;;;;;;15.47;9.30;;;;;;;;;;10538513;28;20102;-64
2022/02/19 15:41:45;;;;;;;12.23;8.60;;;;;;;;;;10537622;28;20449;-63
2022/02/19 15:46:46;;;;;;;16.23;8.63;;;;;;;;;;10538231;28;20290;-63
2022/02/19 15:51:46;;;;;;;13.77;9.60;;;;;;;;;;10538428;28;20066;-62
2022/02/19 15:56:47;;;;;;;15.07;9.38;;;;;;;;;;10535913;28;20593;-61
2022/02/19 16:01:47;;;;;;;17.23;9.73;;;;;;;;;;10534978;28;20024;-67
2022/02/19 16:06:48;;;;;;;15.37;9.37;;;;;;;;;;10536554;28;20035;-65
2022/02/19 16:11:48;;;;;;;14.90;9.20;;;;;;;;;;10536861;28;20520;-65
2022/02/19 16:16:48;;;;;;;12.23;9.50;;;;;;;;;;10528548;28;20789;-66
2022/02/19 16:21:50;;;;;;;18.47;9.97;;;;;;;;;;10535377;28;20543;-70
2022/02/19 16:26:50;;;;;;;14.40;10.27;;;;;;;;;;10535554;28;20452;-65
2022/02/19 16:31:51;;;;;;;15.05;9.68;;;;;;;;;;10535148;28;20047;-67
2022/02/19 16:36:51;;;;;;;14.25;9.35;;;;;;;;;;10534799;28;20069;-66
2022/02/19 16:41:52;;;;;;;16.40;10.00;;;;;;;;;;10534720;28;20028;-67
2022/02/19 16:46:52;;;;;;;14.68;10.20;;;;;;;;;;10533301;28;20438;-64
2022/02/19 16:51:53;;;;;;;17.10;10.30;;;;;;;;;;10534326;28;20095;-66
2022/02/19 16:56:53;;;;;;;16.02;10.00;;;;;;;;;;10534388;28;20453;-67
2022/02/19 17:01:54;;;;;;;17.58;10.05;;;;;;;;;;10534892;28;20024;-71
2022/02/19 17:06:56;;;;;;;25.93;11.00;;;;;;;;;;10533957;28;20111;-69
2022/02/19 17:11:56;;;;;;;22.90;10.23;;;;;;;;;;10533210;28;20060;-69
2022/02/19 17:16:57;;;;;;;16.17;9.83;;;;;;;;;;10534048;28;20048;-66
2022/02/19 17:21:57;;;;;;;19.13;10.10;;;;;;;;;;10534441;28;20036;-68
2022/02/19 17:26:59;;;;;;;15.93;9.73;;;;;;;;;;10533608;28;20406;-68
2022/02/19 17:32:00;;;;;;;14.88;9.95;;;;;;;;;;10534261;28;20444;-67
2022/02/19 17:37:01;;;;;;;15.68;10.65;;;;;;;;;;10533398;28;20046;-65
2022/02/19 17:42:03;;;;;;;22.33;10.75;;;;;;;;;;10533566;28;20467;-67
2022/02/19 17:47:04;;;;;;;17.27;10.50;;;;;;;;;;10530091;28;20035;-64
2022/02/19 17:52:04;;;;;;;20.70;10.27;;;;;;;;;;10531147;28;20501;-63
2022/02/19 17:57:05;;;;;;;22.35;10.93;;;;;;;;;;10529565;28;20514;-63
2022/02/19 18:02:06;;;;;;;19.45;10.48;;;;;;;;;;10531024;28;20084;-63
2022/02/19 18:07:07;;;;;;;15.40;10.10;;;;;;;;;;10532348;28;20675;-63
2022/02/19 18:12:08;;;;;;;15.00;10.98;;;;;;;;;;10532264;28;20092;-67
2022/02/19 18:17:08;;;;;;;17.80;11.05;;;;;;;;;;10530821;28;20029;-66
2022/02/19 18:22:09;;;;;;;16.97;11.83;;;;;;;;;;10536937;28;20111;-66
2022/02/19 18:27:11;;;;;;;18.93;10.97;;;;;;;;;;10540099;28;20792;-66
2022/02/19 18:32:11;;;;;;;21.65;10.90;;;;;;;;;;10538909;28;20432;-67
2022/02/19 18:37:12;;;;;;;21.02;11.18;;;;;;;;;;10540102;28;20472;-66
2022/02/19 18:42:12;;;;;;;15.23;10.50;;;;;;;;;;10537718;28;20544;-66
2022/02/19 18:47:13;;;;;;;15.82;10.50;;;;;;;;;;10534857;28;20520;-66
2022/02/19 18:52:14;;;;;;;18.23;10.70;;;;;;;;;;10538549;28;20016;-63
2022/02/19 18:57:15;;;;;;;18.55;11.40;;;;;;;;;;10535266;28;20399;-63
2022/02/19 19:02:15;;;;;;;15.97;11.33;;;;;;;;;;10537903;28;20032;-64
2022/02/19 19:07:16;;;;;;;20.98;10.98;;;;;;;;;;10537630;28;20979;-63
2022/02/19 19:12:16;;;;;;;19.30;10.95;;;;;;;;;;10537411;28;20510;-65
2022/02/19 19:17:17;;;;;;;20.73;10.27;;;;;;;;;;10537387;28;20023;-64
2022/02/19 19:22:17;;;;;;;18.05;10.15;;;;;;;;;;10538000;28;20812;-65
2022/02/19 19:27:18;;;;;;;21.47;10.50;;;;;;;;;;10537025;28;20036;-63
2022/02/19 19:32:18;;;;;;;19.48;11.05;;;;;;;;;;10535563;28;20521;-64
2022/02/19 19:37:18;;;;;;;20.93;12.17;;;;;;;;;;10537128;28;20107;-65
2022/02/19 19:42:19;;;;;;;21.03;11.60;;;;;;;;;;10537434;28;20042;-65
2022/02/19 19:47:19;;;;;;;16.23;10.75;;;;;;;;;;10536977;28;20024;-64
2022/02/19 19:52:19;;;;;;;18.13;11.37;;;;;;;;;;10537070;28;20103;-63
2022/02/19 19:57:20;;;;;;;16.87;11.00;;;;;;;;;;10536447;28;20067;-63
2022/02/19 20:02:21;;;;;;;17.00;11.15;;;;;;;;;;10536690;28;20076;-66
2022/02/19 20:07:23;;;;;;;15.63;10.70;;;;;;;;;;10536489;28;20077;-63
2022/02/19 20:12:24;;;;;;;19.55;11.65;;;;;;;;;;10536459;28;20433;-63
2022/02/19 20:17:24;;;;;;;27.90;10.37;;;;;;;;;;10534821;28;20391;-62
2022/02/19 20:22:24;;;;;;;20.57;11.63;;;;;;;;;;10532078;28;20555;-62
2022/02/19 20:27:25;;;;;;;17.87;11.60;;;;;;;;;;10535195;28;21038;-62
2022/02/19 20:32:25;;;;;;;18.65;11.18;;;;;;;;;;10535406;28;20274;-67
2022/02/19 20:37:29;;;;;;;18.88;11.57;;;;;;;;;;10534725;28;20433;-62
2022/02/19 20:42:30;;;;;;;23.98;11.23;;;;;;;;;;10533795;28;20051;-62
2022/02/19 20:47:31;;;;;;;14.60;11.00;;;;;;;;;;10534283;28;20027;-64
2022/02/19 20:52:32;;;;;;;18.48;10.68;;;;;;;;;;10534276;28;20540;-63
2022/02/19 20:57:32;;;;;;;18.30;11.27;;;;;;;;;;10534388;28;20040;-64
2022/02/19 21:02:33;;;;;;;23.70;12.25;;;;;;;;;;10533857;28;20532;-66
2022/02/19 21:07:33;;;;;;;33.40;12.50;;;;;;;;;;10534058;28;20364;-66
2022/02/19 21:12:34;;;;;;;25.70;11.38;;;;;;;;;;10531746;28;20027;-65
2022/02/19 21:17:34;;;;;;;25.90;11.20;;;;;;;;;;10532404;28;20024;-64
2022/02/19 21:22:35;;;;;;;24.88;11.95;;;;;;;;;;10533452;28;20050;-63
2022/02/19 21:27:35;;;;;;;22.45;10.15;;;;;;;;;;10532547;28;20028;-65
2022/02/19 21:32:36;;;;;;;28.87;9.70;;;;;;;;;;10533213;28;20089;-64
2022/02/19 21:37:36;;;;;;;18.42;9.25;;;;;;;;;;10532982;28;21094;-63
2022/02/19 21:42:40;;;;;;;18.00;9.95;;;;;;;;;;10533198;28;20273;-63
2022/02/19 21:47:41;;;;;;;22.08;9.98;;;;;;;;;;10531911;28;20169;-63
2022/02/19 21:52:42;;;;;;;17.15;9.80;;;;;;;;;;10532600;28;20103;-65
2022/02/19 21:57:44;;;;;;;26.95;12.20;;;;;;;;;;10538025;28;20123;-65
2022/02/19 22:02:45;;;;;;;30.83;11.20;;;;;;;;;;10539838;28;20429;-63
2022/02/19 22:07:45;;;;;;;31.48;11.60;;;;;;;;;;10540964;28;20031;-69
2022/02/19 22:12:46;;;;;;;22.00;12.85;;;;;;;;;;10540827;28;20055;-64
2022/02/19 22:17:46;;;;;;;22.15;13.65;;;;;;;;;;10539569;28;20112;-69
2022/02/19 22:22:47;;;;;;;23.70;12.73;;;;;;;;;;10536869;28;20040;-70
2022/02/19 22:27:47;;;;;;;29.67;13.57;;;;;;;;;;10540016;28;20440;-66
2022/02/19 22:32:48;;;;;;;32.03;13.45;;;;;;;;;;10540563;28;20551;-61
2022/02/19 22:37:48;;;;;;;26.53;13.60;;;;;;;;;;10539517;28;20059;-67
2022/02/19 22:42:48;;;;;;;30.23;12.33;;;;;;;;;;10540211;28;20494;-69
2022/02/19 22:47:49;;;;;;;25.20;12.13;;;;;;;;;;10539045;28;20526;-71
2022/02/19 22:52:50;;;;;;;24.33;12.20;;;;;;;;;;10539431;28;20119;-70
2022/02/19 22:57:50;;;;;;;22.15;11.70;;;;;;;;;;10539068;28;20441;-69
2022/02/19 23:02:51;;;;;;;25.88;11.77;;;;;;;;;;10538994;28;20062;-61
2022/02/19 23:07:51;;;;;;;20.40;11.40;;;;;;;;;;10538602;28;20024;-61
2022/02/19 23:12:52;;;;;;;18.30;12.10;;;;;;;;;;10538796;28;21019;-61
2022/02/19 23:17:53;;;;;;;19.45;10.38;;;;;;;;;;10538982;28;20489;-61
2022/02/19 23:22:53;;;;;;;23.05;11.13;;;;;;;;;;10538059;28;20031;-62
2022/02/19 23:27:54;;;;;;;24.60;11.75;;;;;;;;;;10535583;28;20121;-62
2022/02/19 23:32:54;;;;;;;16.47;10.60;;;;;;;;;;10537861;28;20475;-63
2022/02/19 23:37:54;;;;;;;19.10;11.00;;;;;;;;;;10537692;28;20456;-62
2022/02/19 23:42:55;;;;;;;15.87;9.93;;;;;;;;;;10537588;28;20059;-62
2022/02/19 23:47:55;;;;;;;19.63;10.83;;;;;;;;;;10537016;28;20093;-63
2022/02/19 23:52:56;;;;;;;21.83;10.87;;;;;;;;;;10537249;28;20032;-62
2022/02/19 23:57:56;;;;;;;15.43;9.90;;;;;;;;;;10536991;28;20457;-62
